Terminal Aerodrome Forecast
Issued by NWS

Home | Current Version | Previous Version | Text Only | Print | Product List | Glossary On
Versions: 1 2 3 4 5 6 7 8 9 10 11 12 13 14 15 16
000
FTUS43 KMQT 250539
TAFSAW
TAF
KSAW 250539Z 2506/2606 01016KT 1 1/2SM -SN BLSN OVC010
     FM250700 36012G22KT 1SM -SN BLSN OVC008
     FM251200 34015G23KT 1SM -SN BLSN OVC010
     FM251500 32015G23KT 4SM BLSN VCSH OVC025
     FM252000 31014G21KT P6SM OVC030
     FM252200 31011G18KT P6SM BKN035
     FM260000 29008KT P6SM SCT035=

USA.gov is the U.S. government's official web portal to all federal, state and local government web resources and services.